createdAt,value
2023-10-26T00:02:18.768Z,93012.41
2023-10-26T00:04:45.940Z,93004.53
2023-10-26T00:07:13.287Z,93011.00
2023-10-26T00:09:40.307Z,93012.22
2023-10-26T00:12:07.944Z,93002.50
2023-10-26T00:14:35.099Z,93004.94
2023-10-26T00:17:02.120Z,92999.28
2023-10-26T00:19:29.147Z,92997.69
2023-10-26T00:21:56.185Z,93000.91
2023-10-26T00:24:23.184Z,93002.94
2023-10-26T00:26:50.675Z,92980.31
2023-10-26T00:29:17.982Z,92988.19
2023-10-26T00:31:45.869Z,93000.09
2023-10-26T00:34:12.867Z,92996.47
2023-10-26T00:36:39.856Z,92995.06
2023-10-26T00:39:06.933Z,93001.34
2023-10-26T00:41:34.005Z,92997.91
2023-10-26T00:44:01.388Z,92981.94
2023-10-26T00:46:28.392Z,92985.56
2023-10-26T00:48:55.531Z,92995.69
2023-10-26T00:51:23.704Z,92990.44
2023-10-26T00:53:51.182Z,92989.22
2023-10-26T00:56:20.883Z,92972.66
2023-10-26T00:58:49.298Z,92993.69
2023-10-26T01:01:16.891Z,92991.84
2023-10-26T01:03:47.617Z,92985.59
2023-10-26T01:06:14.593Z,92994.06
2023-10-26T01:08:41.821Z,92994.50
2023-10-26T01:11:09.094Z,93006.97
2023-10-26T01:13:36.985Z,93006.19
2023-10-26T01:16:05.947Z,92995.28
2023-10-26T01:18:33.241Z,92990.84
2023-10-26T01:21:00.464Z,93008.41
2023-10-26T01:23:27.846Z,92996.50
2023-10-26T01:25:57.230Z,92994.88
2023-10-26T01:28:24.935Z,92980.53
2023-10-26T01:30:52.869Z,92982.75
2023-10-26T01:33:21.314Z,92989.00
2023-10-26T01:35:48.660Z,92983.97
2023-10-26T01:38:16.420Z,92983.97
2023-10-26T01:40:43.814Z,92982.75
2023-10-26T01:43:10.864Z,92983.38
2023-10-26T01:45:37.864Z,92965.41
2023-10-26T01:48:05.816Z,92972.25
2023-10-26T01:50:33.535Z,92971.03
2023-10-26T01:53:00.558Z,92965.97
2023-10-26T01:55:27.572Z,92961.75
2023-10-26T01:57:54.713Z,92965.78
2023-10-26T02:00:22.419Z,92957.94
2023-10-26T02:02:51.184Z,92968.59
2023-10-26T02:05:18.348Z,92962.59
2023-10-26T02:07:45.456Z,92971.88
2023-10-26T02:10:15.968Z,92965.00
2023-10-26T02:12:43.025Z,92950.66
2023-10-26T02:15:11.179Z,92965.81
2023-10-26T02:17:38.660Z,92973.31
2023-10-26T02:20:06.549Z,92967.44
2023-10-26T02:22:33.544Z,92972.50
2023-10-26T02:25:00.595Z,92969.06
2023-10-26T02:27:27.634Z,92970.28
2023-10-26T02:29:54.661Z,92963.81
2023-10-26T02:32:21.663Z,92972.91
2023-10-26T02:34:48.712Z,92962.00
2023-10-26T02:37:16.730Z,92968.28
2023-10-26T02:39:43.704Z,92976.75
2023-10-26T02:42:10.734Z,92975.13
2023-10-26T02:44:38.102Z,92957.78
2023-10-26T02:47:05.339Z,92969.06
2023-10-26T02:49:32.505Z,92963.81
2023-10-26T02:51:59.483Z,92952.75
2023-10-26T02:54:29.589Z,92954.34
2023-10-26T02:56:56.717Z,92953.72
2023-10-26T02:59:23.867Z,92966.06
2023-10-26T03:01:51.041Z,92963.63
2023-10-26T03:04:18.102Z,92956.97
2023-10-26T03:06:45.192Z,92953.94
2023-10-26T03:09:14.884Z,92944.47
2023-10-26T03:11:42.797Z,92951.75
2023-10-26T03:14:09.812Z,92931.53
2023-10-26T03:16:39.087Z,92946.47
2023-10-26T03:19:06.411Z,92945.47
2023-10-26T03:21:35.017Z,92952.13
2023-10-26T03:24:02.390Z,92947.28
2023-10-26T03:26:29.522Z,92954.72
2023-10-26T03:28:56.570Z,92956.16
2023-10-26T03:31:23.561Z,92962.19
2023-10-26T03:33:50.815Z,92954.94
2023-10-26T03:36:20.487Z,92951.09
2023-10-26T03:38:48.479Z,92952.72
2023-10-26T03:41:15.568Z,92960.19
2023-10-26T03:43:42.541Z,92960.97
2023-10-26T03:46:11.962Z,92963.59
2023-10-26T03:48:39.101Z,92955.97
2023-10-26T03:51:06.252Z,92960.00
2023-10-26T03:53:34.322Z,92954.53
2023-10-26T03:56:03.286Z,92958.16
2023-10-26T03:58:30.310Z,92968.66
2023-10-26T04:00:59.389Z,92964.44
2023-10-26T04:03:26.647Z,92965.44
2023-10-26T04:05:54.587Z,92962.00
2023-10-26T04:08:21.606Z,92960.19
2023-10-26T04:10:49.452Z,92962.59
2023-10-26T04:13:16.408Z,92964.03
2023-10-26T04:15:43.504Z,92966.06
2023-10-26T04:18:10.607Z,92975.94
2023-10-26T04:20:37.676Z,92967.03
2023-10-26T04:23:05.249Z,92965.84
2023-10-26T04:25:50.552Z,92961.41
2023-10-26T04:28:19.664Z,92971.28
2023-10-26T04:30:50.777Z,92961.81
2023-10-26T04:33:19.301Z,92961.19
2023-10-26T04:35:48.179Z,92948.09
2023-10-26T04:38:15.150Z,92943.25
2023-10-26T04:40:44.403Z,92940.81
2023-10-26T04:43:11.465Z,92936.78
2023-10-26T04:45:38.709Z,92934.38
2023-10-26T04:48:05.920Z,92938.41
2023-10-26T04:50:33.543Z,92936.78
2023-10-26T04:53:03.642Z,92935.78
2023-10-26T04:55:35.405Z,92932.78
2023-10-26T04:58:03.368Z,92925.91
2023-10-26T05:00:31.364Z,92933.38
2023-10-26T05:02:58.704Z,92930.31
2023-10-26T05:05:26.561Z,92938.41
2023-10-26T05:07:54.138Z,92918.25
2023-10-26T05:10:21.848Z,92916.19
2023-10-26T05:12:48.975Z,92918.63
2023-10-26T05:15:16.082Z,92920.22
2023-10-26T05:17:43.228Z,92912.56
2023-10-26T05:20:11.062Z,92919.03
2023-10-26T05:22:38.631Z,92913.78
2023-10-26T05:25:06.369Z,92920.22
2023-10-26T05:27:37.119Z,92907.09
2023-10-26T05:30:06.737Z,92900.03
2023-10-26T05:32:34.124Z,92902.88
2023-10-26T05:35:01.234Z,92899.00
2023-10-26T05:37:28.309Z,92889.53
2023-10-26T05:39:55.350Z,92892.56
2023-10-26T05:42:22.426Z,92897.22
2023-10-26T05:44:49.512Z,92892.16
2023-10-26T05:47:21.786Z,92899.25
2023-10-26T05:49:49.441Z,92885.91
2023-10-26T05:52:16.985Z,92887.53
2023-10-26T05:54:44.159Z,92887.09
2023-10-26T05:57:11.335Z,92885.06
2023-10-26T05:59:38.341Z,92888.94
2023-10-26T06:02:05.843Z,92892.34
2023-10-26T06:04:33.268Z,92868.94
2023-10-26T06:07:01.308Z,92874.16
2023-10-26T06:09:28.563Z,92873.94
2023-10-26T06:11:55.565Z,92872.91
2023-10-26T06:14:22.556Z,92870.09
2023-10-26T06:16:49.585Z,92874.53
2023-10-26T06:19:16.680Z,92869.28
2023-10-26T06:21:43.661Z,92869.06
2023-10-26T06:24:10.894Z,92872.06
2023-10-26T06:26:38.104Z,92867.41
2023-10-26T06:29:05.320Z,92867.41
2023-10-26T06:31:32.315Z,92871.63
2023-10-26T06:33:59.343Z,92871.22
2023-10-26T06:36:26.344Z,92867.56
2023-10-26T06:38:55.619Z,92867.38
2023-10-26T06:41:23.034Z,92876.03
2023-10-26T06:43:49.997Z,92868.16
2023-10-26T06:46:17.277Z,92878.06
2023-10-26T06:48:44.363Z,92874.59
2023-10-26T06:51:11.383Z,92872.38
2023-10-26T06:53:38.364Z,92872.78
2023-10-26T06:56:14.652Z,92868.31
2023-10-26T06:58:43.798Z,92872.72
2023-10-26T07:01:24.437Z,92870.69
2023-10-26T07:03:52.606Z,92877.16
2023-10-26T07:06:20.645Z,92868.84
2023-10-26T07:08:50.305Z,92870.88
2023-10-26T07:11:21.023Z,92882.97
2023-10-26T07:13:48.276Z,92885.19
2023-10-26T07:16:15.261Z,92879.56
2023-10-26T07:18:42.413Z,92885.19
2023-10-26T07:21:09.563Z,92873.03
2023-10-26T07:23:37.096Z,92872.19
2023-10-26T07:26:04.736Z,92866.94
2023-10-26T07:28:31.761Z,92869.38
2023-10-26T07:30:58.719Z,92863.31
2023-10-26T07:33:26.335Z,92853.38
2023-10-26T07:35:57.572Z,92854.38
2023-10-26T07:38:36.777Z,92858.59
2023-10-26T07:41:06.923Z,92861.81
2023-10-26T07:43:35.438Z,92863.84
2023-10-26T07:46:03.165Z,92870.09
2023-10-26T07:48:32.366Z,92858.56
2023-10-26T07:50:59.552Z,92858.13
2023-10-26T07:53:29.605Z,92864.78
2023-10-26T07:55:59.213Z,92860.16
2023-10-26T07:58:31.604Z,92856.47
2023-10-26T08:00:58.635Z,92871.59
2023-10-26T08:03:25.859Z,92866.72
2023-10-26T08:06:02.110Z,92870.16
2023-10-26T08:08:29.260Z,92867.69
2023-10-26T08:10:57.777Z,92877.81
2023-10-26T08:13:24.807Z,92873.72
2023-10-26T08:16:08.690Z,92860.13
2023-10-26T08:18:39.558Z,92863.78
2023-10-26T08:21:06.888Z,92856.91
2023-10-26T08:23:34.459Z,92868.41
2023-10-26T08:26:11.442Z,92864.13
2023-10-26T08:28:38.634Z,92867.34
2023-10-26T08:31:08.040Z,92860.03
2023-10-26T08:33:35.671Z,92866.88
2023-10-26T08:36:05.467Z,92864.84
2023-10-26T08:38:34.228Z,92869.88
2023-10-26T08:41:01.612Z,92874.09
2023-10-26T08:43:30.154Z,92871.03
2023-10-26T08:46:01.586Z,92875.44
2023-10-26T08:48:31.695Z,92867.25
2023-10-26T08:50:58.940Z,92860.75
2023-10-26T08:53:26.060Z,92869.81
2023-10-26T08:55:57.567Z,92883.94
2023-10-26T08:58:24.782Z,92865.09
2023-10-26T09:00:53.528Z,92868.81
2023-10-26T09:03:23.193Z,92875.38
2023-10-26T09:05:57.656Z,92885.91
2023-10-26T09:08:27.892Z,92883.50
2023-10-26T09:10:55.058Z,92879.84
2023-10-26T09:13:29.356Z,92895.81
2023-10-26T09:15:59.383Z,92891.03
2023-10-26T09:18:29.578Z,92878.97
2023-10-26T09:21:08.497Z,92869.78
2023-10-26T09:23:38.716Z,92875.53
2023-10-26T09:26:11.608Z,92874.53
2023-10-26T09:28:55.446Z,92879.13
2023-10-26T09:31:26.500Z,92873.00
2023-10-26T09:33:53.613Z,92872.59
2023-10-26T09:36:21.990Z,92873.88
2023-10-26T09:38:49.315Z,92887.22
2023-10-26T09:41:18.316Z,92880.31
2023-10-26T09:43:45.455Z,92873.22
2023-10-26T09:46:15.580Z,92887.28
2023-10-26T09:48:42.795Z,92882.22
2023-10-26T09:51:12.183Z,92896.25
2023-10-26T09:53:43.561Z,92880.53
2023-10-26T09:56:21.682Z,92885.06
2023-10-26T09:58:49.574Z,92878.06
2023-10-26T10:01:41.238Z,92882.75
2023-10-26T10:04:11.939Z,92888.28
2023-10-26T10:06:55.905Z,92888.16
2023-10-26T10:09:25.227Z,92884.84
2023-10-26T10:12:07.308Z,92873.75
2023-10-26T10:15:22.593Z,92872.75
2023-10-26T10:17:50.389Z,92883.56
2023-10-26T10:20:20.161Z,92886.56
2023-10-26T10:22:49.084Z,92886.03
2023-10-26T10:25:19.707Z,92877.41
2023-10-26T10:27:49.781Z,92880.28
2023-10-26T10:30:22.837Z,92876.63
2023-10-26T10:32:51.941Z,92884.41
2023-10-26T10:35:22.182Z,92891.41
2023-10-26T10:38:20.394Z,92892.13
2023-10-26T10:40:56.461Z,92889.47
2023-10-26T10:43:42.050Z,92870.84
2023-10-26T10:46:14.870Z,92872.22
2023-10-26T10:49:01.035Z,92868.88
2023-10-26T10:51:39.787Z,92857.22
2023-10-26T10:56:50.693Z,92857.16
2023-10-26T10:59:27.825Z,92866.75
2023-10-26T11:02:14.978Z,92856.94
2023-10-26T11:05:02.304Z,92858.00
2023-10-26T11:07:36.673Z,92860.13
2023-10-26T11:10:04.783Z,92839.13
2023-10-26T11:12:32.091Z,92832.69
2023-10-26T11:14:59.880Z,92828.03
2023-10-26T11:17:29.180Z,92840.44
2023-10-26T11:19:57.148Z,92838.19
2023-10-26T11:22:24.575Z,92847.09
2023-10-26T11:24:51.867Z,92833.41
2023-10-26T11:27:23.477Z,92833.09
2023-10-26T11:30:06.720Z,92830.16
2023-10-26T11:32:34.265Z,92833.97
2023-10-26T11:35:17.582Z,92833.09
2023-10-26T11:37:49.895Z,92847.53
2023-10-26T11:40:18.056Z,92838.69
2023-10-26T11:42:58.091Z,92851.97
2023-10-26T11:45:27.350Z,92850.06
2023-10-26T11:47:59.575Z,92838.53
2023-10-26T11:50:33.521Z,92840.72
2023-10-26T11:53:02.812Z,92845.50
2023-10-26T11:55:35.707Z,92829.31
2023-10-26T11:58:04.334Z,92832.78
2023-10-26T12:00:32.307Z,92831.75
2023-10-26T12:03:00.387Z,92829.63
2023-10-26T12:05:28.812Z,92824.47
2023-10-26T12:07:56.461Z,92812.34
2023-10-26T12:10:25.138Z,92815.16
2023-10-26T12:12:53.106Z,92800.03
2023-10-26T12:15:24.080Z,92800.38
2023-10-26T12:17:51.906Z,92793.03
2023-10-26T12:20:19.748Z,92798.34
2023-10-26T12:22:48.805Z,92791.94
2023-10-26T12:25:15.960Z,92791.16
2023-10-26T12:28:21.296Z,92791.47
2023-10-26T12:30:30.134Z,92779.28
2023-10-26T12:32:57.195Z,92772.94
2023-10-26T12:35:24.815Z,92773.25
2023-10-26T12:37:52.651Z,92780.91
2023-10-26T12:40:21.765Z,92785.66
2023-10-26T12:42:49.134Z,92782.38
2023-10-26T12:45:18.935Z,92791.94
2023-10-26T12:47:46.385Z,92771.34
2023-10-26T12:50:13.705Z,92779.53
2023-10-26T12:52:40.902Z,92766.28
2023-10-26T12:55:08.368Z,92771.06
2023-10-26T12:57:35.361Z,92783.31
2023-10-26T13:00:02.528Z,92791.28
2023-10-26T13:02:29.834Z,92790.16
2023-10-26T13:04:56.964Z,92804.47
2023-10-26T13:07:24.100Z,92803.13
2023-10-26T13:09:51.167Z,92808.41
2023-10-26T13:12:18.167Z,92808.56
2023-10-26T13:14:45.291Z,92805.38
2023-10-26T13:17:15.064Z,92799.47
2023-10-26T13:19:42.095Z,92781.34
2023-10-26T13:22:09.690Z,92780.03
2023-10-26T13:24:36.674Z,92787.22
2023-10-26T13:27:03.986Z,92788.78
2023-10-26T13:29:30.969Z,92786.59
2023-10-26T13:31:59.094Z,92783.31
2023-10-26T13:34:26.061Z,92775.50
2023-10-26T13:36:53.208Z,92781.16
2023-10-26T13:39:22.593Z,92805.28
2023-10-26T13:41:49.651Z,92779.31
2023-10-26T13:44:16.656Z,92774.88
2023-10-26T13:46:43.885Z,92778.84
2023-10-26T13:49:12.881Z,92780.34
2023-10-26T13:51:39.998Z,92779.25
2023-10-26T13:54:07.457Z,92772.81
2023-10-26T13:56:35.134Z,92763.72
2023-10-26T13:59:02.551Z,92765.81
2023-10-26T14:01:29.763Z,92772.75
2023-10-26T14:03:56.772Z,92759.47
2023-10-26T14:06:27.233Z,92757.81
2023-10-26T14:08:59.478Z,92761.50
2023-10-26T14:11:28.117Z,92750.63
2023-10-26T14:13:55.268Z,92749.00
2023-10-26T14:16:22.401Z,92743.22
2023-10-26T14:18:49.937Z,92744.50
2023-10-26T14:21:18.094Z,92740.72
2023-10-26T14:23:45.413Z,92742.84
2023-10-26T14:26:12.502Z,92733.00
2023-10-26T14:28:39.536Z,92729.47
2023-10-26T14:31:06.596Z,92726.78
2023-10-26T14:33:33.642Z,92719.22
2023-10-26T14:36:00.656Z,92716.03
2023-10-26T14:38:27.632Z,92722.88
2023-10-26T14:40:59.369Z,92716.28
2023-10-26T14:43:28.456Z,92727.88
2023-10-26T14:45:55.627Z,92718.47
2023-10-26T14:48:22.669Z,92722.34
2023-10-26T14:50:49.925Z,92720.13
2023-10-26T14:53:16.911Z,92719.50
2023-10-26T14:55:43.961Z,92720.47
2023-10-26T14:58:11.104Z,92717.97
2023-10-26T15:00:39.758Z,92722.78
2023-10-26T15:03:07.612Z,92738.72
2023-10-26T15:05:35.913Z,92727.75
2023-10-26T15:08:04.167Z,92718.84
2023-10-26T15:10:35.866Z,92713.00
2023-10-26T15:13:06.143Z,92720.13
2023-10-26T15:15:33.296Z,92723.03
2023-10-26T15:18:00.445Z,92726.78
2023-10-26T15:20:27.418Z,92729.34
2023-10-26T15:22:54.396Z,92733.84
2023-10-26T15:25:21.556Z,92714.69
2023-10-26T15:27:48.601Z,92723.72
2023-10-26T15:30:15.716Z,92734.25
2023-10-26T15:32:42.753Z,92717.75
2023-10-26T15:35:09.721Z,92729.94
2023-10-26T15:37:38.087Z,92732.81
2023-10-26T15:40:06.490Z,92725.03
2023-10-26T15:42:33.668Z,92737.22
2023-10-26T15:45:00.810Z,92733.47
2023-10-26T15:47:27.861Z,92741.06
2023-10-26T15:49:59.347Z,92743.94
2023-10-26T15:52:26.653Z,92739.16
2023-10-26T15:54:53.634Z,92728.94
2023-10-26T15:57:20.673Z,92735.75
2023-10-26T15:59:47.734Z,92752.88
2023-10-26T16:02:14.795Z,92747.75
2023-10-26T16:04:41.881Z,92745.28
2023-10-26T16:07:08.951Z,92739.72
2023-10-26T16:09:37.553Z,92740.34
2023-10-26T16:12:05.518Z,92746.47
2023-10-26T16:14:32.478Z,92738.44
2023-10-26T16:16:59.478Z,92737.31
2023-10-26T16:19:28.471Z,92745.63
2023-10-26T16:21:55.761Z,92734.88
2023-10-26T16:24:22.814Z,92738.06
2023-10-26T16:26:49.792Z,92747.50
2023-10-26T16:29:16.904Z,92741.31
2023-10-26T16:31:43.901Z,92746.50
2023-10-26T16:34:10.915Z,92749.97
2023-10-26T16:36:37.968Z,92746.66
2023-10-26T16:39:05.677Z,92747.38
2023-10-26T16:41:32.673Z,92755.75
2023-10-26T16:43:59.636Z,92749.31
2023-10-26T16:46:26.744Z,92758.63
2023-10-26T16:48:53.800Z,92767.03
2023-10-26T16:51:21.011Z,92761.84
2023-10-26T16:53:48.050Z,92760.16
2023-10-26T16:56:14.996Z,92763.50
2023-10-26T16:58:41.972Z,92763.63
2023-10-26T17:01:13.674Z,92769.13
2023-10-26T17:03:40.799Z,92768.56
2023-10-26T17:06:10.279Z,92774.78
2023-10-26T17:08:37.508Z,92774.41
2023-10-26T17:11:04.722Z,92775.19
2023-10-26T17:13:31.820Z,92785.97
2023-10-26T17:15:58.890Z,92787.47
2023-10-26T17:18:26.037Z,92776.59
2023-10-26T17:20:58.058Z,92777.53
2023-10-26T17:23:28.732Z,92782.81
2023-10-26T17:25:55.675Z,92783.38
2023-10-26T17:28:22.670Z,92768.91
2023-10-26T17:30:49.903Z,92776.03
2023-10-26T17:33:17.002Z,92776.69
2023-10-26T17:35:49.217Z,92770.75
2023-10-26T17:38:16.475Z,92770.97
2023-10-26T17:40:46.118Z,92769.13
2023-10-26T17:43:14.478Z,92764.53
2023-10-26T17:45:41.651Z,92762.59
2023-10-26T17:48:10.998Z,92772.69
2023-10-26T17:50:41.867Z,92758.22
2023-10-26T17:53:09.337Z,92752.94
2023-10-26T17:55:36.371Z,92753.97
2023-10-26T17:58:03.524Z,92742.16
2023-10-26T18:00:30.655Z,92745.84
2023-10-26T18:02:57.675Z,92756.97
2023-10-26T18:05:24.800Z,92757.88
2023-10-26T18:07:51.760Z,92762.09
2023-10-26T18:10:21.117Z,92749.97
2023-10-26T18:12:48.813Z,92758.09
2023-10-26T18:15:15.936Z,92754.88
2023-10-26T18:17:43.022Z,92751.31
2023-10-26T18:20:10.657Z,92760.03
2023-10-26T18:22:37.655Z,92759.44
2023-10-26T18:25:05.221Z,92759.34
2023-10-26T18:27:32.720Z,92748.66
2023-10-26T18:29:59.741Z,92752.09
2023-10-26T18:32:26.855Z,92741.44
2023-10-26T18:34:53.854Z,92753.94
2023-10-26T18:37:22.310Z,92754.63
2023-10-26T18:39:49.959Z,92766.19
2023-10-26T18:42:17.068Z,92752.06
2023-10-26T18:44:44.031Z,92757.69
2023-10-26T18:47:11.810Z,92744.97
2023-10-26T18:49:39.852Z,92742.78
2023-10-26T18:52:07.186Z,92743.94
2023-10-26T18:54:35.247Z,92738.78
2023-10-26T18:57:04.698Z,92726.28
2023-10-26T18:59:31.894Z,92714.78
2023-10-26T19:02:00.144Z,92741.72
2023-10-26T19:04:27.304Z,92746.53
2023-10-26T19:06:55.139Z,92734.84
2023-10-26T19:09:22.140Z,92736.69
2023-10-26T19:11:49.110Z,92732.88
2023-10-26T19:14:16.072Z,92737.59
2023-10-26T19:16:43.390Z,92718.66
2023-10-26T19:19:10.581Z,92717.47
2023-10-26T19:21:37.733Z,92718.16
2023-10-26T19:24:05.220Z,92712.75
2023-10-26T19:26:32.202Z,92716.19
2023-10-26T19:28:59.220Z,92713.75
2023-10-26T19:31:27.472Z,92712.97
2023-10-26T19:33:54.618Z,92719.03
2023-10-26T19:36:21.613Z,92722.47
2023-10-26T19:38:49.781Z,92722.25
2023-10-26T19:41:22.378Z,92725.63
2023-10-26T19:43:54.350Z,92724.63
2023-10-26T19:46:25.925Z,92721.84
2023-10-26T19:48:53.013Z,92710.72
2023-10-26T19:51:21.284Z,92709.50
2023-10-26T19:53:51.713Z,92700.91
2023-10-26T19:56:19.809Z,92698.13
2023-10-26T19:58:47.495Z,92704.22
2023-10-26T20:01:14.716Z,92703.63
2023-10-26T20:03:42.273Z,92705.00
2023-10-26T20:06:09.400Z,92703.84
2023-10-26T20:08:37.226Z,92697.44
2023-10-26T20:11:05.848Z,92689.31
2023-10-26T20:13:32.943Z,92695.59
2023-10-26T20:15:59.955Z,92671.53
2023-10-26T20:18:28.557Z,92675.78
2023-10-26T20:20:55.558Z,92673.59
2023-10-26T20:23:22.578Z,92663.94
2023-10-26T20:25:50.495Z,92678.38
2023-10-26T20:28:17.519Z,92665.00
2023-10-26T20:30:44.637Z,92665.47
2023-10-26T20:33:11.650Z,92657.00
2023-10-26T20:35:38.667Z,92654.69
2023-10-26T20:38:05.705Z,92655.72
2023-10-26T20:40:33.075Z,92647.94
2023-10-26T20:43:02.390Z,92652.88
2023-10-26T20:45:29.410Z,92643.94
2023-10-26T20:47:56.400Z,92639.72
2023-10-26T20:50:23.605Z,92638.31
2023-10-26T20:52:53.591Z,92627.38
2023-10-26T20:55:20.713Z,92621.75
2023-10-26T20:57:47.798Z,92621.53
2023-10-26T21:00:15.572Z,92611.78
2023-10-26T21:02:43.461Z,92608.00
2023-10-26T21:05:10.539Z,92615.47
2023-10-26T21:07:38.620Z,92625.41
2023-10-26T21:10:06.556Z,92615.31
2023-10-26T21:12:33.798Z,92617.94
2023-10-26T21:15:00.799Z,92616.94
2023-10-26T21:17:30.205Z,92617.16
2023-10-26T21:19:57.321Z,92606.84
2023-10-26T21:22:24.524Z,92603.06
2023-10-26T21:24:51.577Z,92600.41
2023-10-26T21:27:19.240Z,92590.34
2023-10-26T21:29:46.233Z,92588.31
2023-10-26T21:32:13.267Z,92589.91
2023-10-26T21:34:40.321Z,92569.31
2023-10-26T21:37:08.367Z,92560.00
2023-10-26T21:39:35.362Z,92573.09
2023-10-26T21:42:04.316Z,92565.41
2023-10-26T21:44:31.312Z,92565.28
2023-10-26T21:46:58.378Z,92562.84
2023-10-26T21:49:25.419Z,92561.84
2023-10-26T21:51:52.390Z,92564.91
2023-10-26T21:54:19.392Z,92558.84
2023-10-26T21:56:46.437Z,92568.38
2023-10-26T21:59:13.450Z,92554.38
2023-10-26T22:01:40.537Z,92546.38
2023-10-26T22:04:21.521Z,92551.16
2023-10-26T22:06:49.268Z,92551.63
2023-10-26T22:09:18.314Z,92547.63
2023-10-26T22:11:45.534Z,92542.00
2023-10-26T22:14:12.512Z,92555.16
2023-10-26T22:16:41.213Z,92558.22
2023-10-26T22:19:08.364Z,92548.38
2023-10-26T22:21:35.421Z,92543.78
2023-10-26T22:24:02.989Z,92528.00
2023-10-26T22:26:30.131Z,92531.44
2023-10-26T22:28:57.096Z,92536.47
2023-10-26T22:31:24.107Z,92527.44
2023-10-26T22:33:51.158Z,92538.53
2023-10-26T22:36:18.234Z,92537.50
2023-10-26T22:38:46.047Z,92530.06
2023-10-26T22:41:13.292Z,92521.94
2023-10-26T22:43:40.329Z,92531.66
2023-10-26T22:46:07.885Z,92531.50
2023-10-26T22:48:34.960Z,92532.53
2023-10-26T22:51:02.127Z,92528.06
2023-10-26T22:53:29.143Z,92531.75
2023-10-26T22:55:56.095Z,92526.78
2023-10-26T22:58:23.216Z,92520.97
2023-10-26T23:00:50.248Z,92528.38
2023-10-26T23:03:17.346Z,92533.06
2023-10-26T23:05:44.519Z,92539.28
2023-10-26T23:08:12.542Z,92544.75
2023-10-26T23:10:39.503Z,92541.16
2023-10-26T23:13:06.511Z,92545.84
2023-10-26T23:15:33.511Z,92540.47
2023-10-26T23:18:00.511Z,92553.16
2023-10-26T23:20:27.717Z,92547.78
2023-10-26T23:22:54.674Z,92548.94
2023-10-26T23:25:21.894Z,92553.03
2023-10-26T23:27:50.579Z,92547.41
2023-10-26T23:30:17.635Z,92544.91
2023-10-26T23:32:44.656Z,92548.09
2023-10-26T23:35:11.670Z,92542.06
2023-10-26T23:37:38.674Z,92544.91
2023-10-26T23:40:07.469Z,92554.19
2023-10-26T23:42:34.937Z,92547.09
2023-10-26T23:45:01.909Z,92544.09
2023-10-26T23:47:29.369Z,92537.09
2023-10-26T23:49:57.044Z,92536.53
2023-10-26T23:52:24.047Z,92539.50
2023-10-26T23:54:51.611Z,92541.78
2023-10-26T23:57:19.758Z,92544.81
2023-10-26T23:59:46.767Z,92547.47
